KAXN/AXN METAR and TAF weather

Enter ICAO airport designator
Station Type Date Time Source
KAXN METAR 2018/01/19 22:53 UTC NOAA

KAXN 192253Z AUTO 30010KT 10SM CLR 03/M01 A2956 RMK AO2 SLP023 T00331011


Station Type Date Time Source
KAXN Decoded METAR 2018/01/19 22:53 UTC NOAA

CHANDLER FIELD, MN, United States (KAXN) 45-52N 095-24W 433M
Jan 19, 2018 - 05:53 PM EST / 2018.01.19 2253 UTC
Wind: from the WNW (300 degrees) at 12 MPH (10 KT):0
Visibility: 10 mile(s):0
Sky conditions: clear
Temperature: 37.9 F (3.3 C)
Dew Point: 30.0 F (-1.1 C)
Relative Humidity: 72%
Pressure (altimeter): 29.56 in. Hg (1001 hPa)
ob: KAXN 192253Z AUTO 30010KT 10SM CLR 03/M01 A2956 RMK AO2 SLP023 T00331011
cycle: 23

Station Type Date Time Source
KAXN TAF 2018/01/19 18:22 UTC NOAA

TAF KAXN 191720Z 1918/2018 26007KT P6SM OVC200
FM192100 29007KT P6SM BKN200
FM200400 28006KT P6SM BKN120
FM201100 26005KT P6SM BKN100


Example: see airport list